Terminal Aerodrome Forecast
Issued by NWS

Home | Current Version | Previous Version | Text Only | Print | Product List | Glossary On
Versions: 1 2 3 4 5 6 7 8 9 10 11 12 13 14 15 16 17 18 19 20 21 22 23 24 25 26 27 28 29 30 31
000
FTUS45 KTFX 060543
TAFWYS
TAF
KWYS 060543Z 0606/0706 VRB04KT P6SM -SHRA SCT070 BKN120
      WS020/20040KT
     FM061500 20016G25KT P6SM FEW060 SCT150 PROB30 0617/0623 4SM
      TSRA BR BKN040CB
     FM070300 21011KT 6SM -RA BR SCT015 OVC040 PROB30 0703/0706 4SM
      TSRA BR FEW001 BKN015CB=

USA.gov is the U.S. government's official web portal to all federal, state and local government web resources and services.